Latest Weather Observations for Cabramurra

IDN60901

Issued at 9:41 pm EDT Friday 19 December 2014 (issued every 10 minutes, with the page automatically refreshed every 10 minutes)

About weather observations | Map of Canberra area stations | Latest observations for Canberra area | Other Formats
Station Details ID: 072161 Name: CABRAMURRA SMHEA AWS Lat: -35.94 Lon: 148.38 Height: 1482.4 m
Data from the previous 72 hours. | See also: Recent months at Cabramurra
Date/Time
EDT
Tmp

°C
App
Tmp
°C
Dew
Point
°C
Rel
Hum
%
Delta-T

°C
Wind Press
QNH
hPa
Press
MSL
hPa
Rain
since
9 am
mm
Dir
 
Spd
km/h
Gust
km/h
Spd
kts
Gust
kts
19/09:30pm 9.7 6.7 2.3 60 3.4 S 7 13 4 7 - - 0.0
19/08:30pm 10.5 7.6 2.6 58 3.7 SW 7 13 4 7 - - 0.0
19/08:00pm 12.0 8.0 2.7 53 4.4 WSW 13 20 7 11 - - 0.0
19/07:30pm 13.4 9.8 2.9 49 5.1 WSW 11 15 6 8 - - 0.0
19/07:00pm 13.7 9.2 2.3 46 5.5 WSW 15 22 8 12 - - 0.0
19/06:30pm 14.1 9.6 2.4 45 5.6 W 15 28 8 15 - - 0.0
19/05:30pm 14.1 9.7 2.7 46 5.5 W 15 26 8 14 - - 0.0
19/05:00pm 14.1 9.3 2.4 45 5.6 W 17 24 9 13 - - 0.0
19/04:30pm 14.2 9.1 2.8 46 5.5 W 19 26 10 14 - - 0.0
19/04:00pm 14.1 10.1 2.7 46 5.5 W 13 22 7 12 - - 0.0
19/03:30pm 13.4 8.1 2.0 46 5.4 WNW 19 30 10 16 - - 0.0
19/03:00pm 13.6 8.0 0.9 42 5.9 WNW 20 32 11 17 - - 0.0
19/02:30pm 13.1 8.1 1.5 45 5.4 WSW 17 26 9 14 - - 0.0
19/02:00pm 12.5 7.2 1.8 48 5.0 WSW 19 28 10 15 - - 0.0
19/01:30pm 12.5 7.6 2.1 49 4.9 WNW 17 32 9 17 - - 0.0
19/01:00pm 11.5 6.4 2.8 55 4.1 WNW 19 30 10 16 - - 0.0
19/12:30pm 11.5 6.4 2.8 55 4.1 WNW 19 28 10 15 - - 0.0
19/12:00pm 11.1 6.4 3.4 59 3.7 WNW 17 28 9 15 - - 0.0
19/11:30am 10.6 5.9 3.2 60 3.5 WNW 17 24 9 13 - - 0.0
19/11:00am 9.9 6.6 4.3 68 2.7 NW 11 20 6 11 - - 0.0
19/10:30am 9.7 5.8 3.2 64 3.1 WNW 13 19 7 10 - - 0.0
19/10:00am 9.3 6.1 4.9 74 2.2 NW 11 17 6 9 - - 0.0
19/09:30am 8.5 5.3 3.1 69 2.5 NW 9 15 5 8 - - 0.0
19/09:00am 8.3 5.0 2.3 66 2.7 WSW 9 11 5 6 - - 0.0
19/08:30am 8.0 5.3 2.7 69 2.4 S 6 13 3 7 - - 0.0
19/08:00am 6.9 4.3 3.2 77 1.7 WSW 6 9 3 5 - - 0.0
19/07:30am 6.3 4.9 3.8 84 1.2 CALM 0 0 0 0 - - 0.0
19/07:00am 5.1 3.5 2.5 83 1.2 CALM 0 4 0 2 - - 0.0
19/06:30am 4.5 1.6 2.7 88 0.8 SW 7 11 4 6 - - 0.0
19/05:30am 4.5 1.8 2.5 87 0.9 SSW 6 13 3 7 - - 0.0
19/05:00am 4.7 0.7 2.7 87 0.9 W 13 19 7 10 - - 0.0
19/04:30am 5.2 0.4 2.7 84 1.1 WSW 17 26 9 14 - - 0.0
19/04:00am 5.4 0.3 2.9 84 1.1 W 19 28 10 15 - - 0.0
19/03:30am 5.8 0.5 3.1 83 1.2 WSW 20 30 11 16 - - 0.0
19/03:00am 6.1 0.4 3.1 81 1.4 WSW 22 33 12 18 - - 0.0
19/02:30am 6.6 1.3 3.0 78 1.7 WSW 20 26 11 14 - - 0.0
19/02:00am 6.7 1.0 3.0 77 1.7 WSW 22 32 12 17 - - 0.0
19/01:30am 7.2 0.3 2.7 73 2.1 W 28 44 15 24 - - 0.0
19/01:00am 7.5 2.1 2.4 70 2.3 W 20 33 11 18 - - 0.0
19/12:30am 8.1 1.1 1.9 65 2.8 W 28 44 15 24 - - 0.0
 
Date/Time
EDT
Tmp

°C
App
Tmp
°C
Dew
Point
°C
Rel
Hum
%
Delta-T

°C
Wind Press
QNH
hPa
Press
MSL
hPa
Rain
since
9 am
mm
Dir
 
Spd
km/h
Gust
km/h
Spd
kts
Gust
kts
18/11:30pm 9.4 2.6 0.8 55 3.8 WSW 26 39 14 21 - - 0.0
18/11:00pm 10.3 2.7 0.6 51 4.3 W 30 48 16 26 - - 0.0
18/10:30pm 10.8 2.9 1.1 51 4.4 W 32 52 17 28 - - 0.0
18/10:00pm 11.2 4.2 1.7 52 4.4 W 28 46 15 25 - - 0.0
18/09:30pm 12.1 4.1 1.4 48 5.0 W 33 56 18 30 - - 0.0
18/09:00pm 12.9 5.3 0.6 43 5.6 W 30 50 16 27 - - 0.0
18/08:55pm 13.0 6.1 0.4 42 5.8 W 26 50 14 27 - - 0.0
18/08:30pm 13.3 6.8 0.3 41 5.9 WNW 24 39 13 21 - - 0.0
18/08:00pm 13.7 6.4 0.0 39 6.2 W 28 52 15 28 - - 0.0
18/07:53pm 13.9 6.6 -0.2 38 6.4 W 28 52 15 28 - - 0.0
18/07:30pm 13.8 6.5 0.1 39 6.3 W 28 48 15 26 - - 0.0
18/07:24pm 14.0 6.7 -0.1 38 6.4 W 28 48 15 26 - - 0.0
18/07:00pm 14.0 7.2 0.6 40 6.2 W 26 39 14 21 - - 0.0
18/06:35pm 14.6 7.4 0.8 39 6.4 W 28 46 15 25 - - 0.0
18/06:30pm 14.3 6.3 0.2 38 6.5 W 32 46 17 25 - - 0.0
18/06:00pm 14.7 6.6 -0.2 36 6.8 WSW 32 43 17 23 - - 0.0
18/05:30pm 15.1 7.6 -1.5 32 7.4 WNW 28 41 15 22 - - 0.0
18/05:00pm 15.3 7.1 -1.3 32 7.5 W 32 48 17 26 - - 0.0
18/04:48pm 17.1 10.0 1.1 34 7.7 WNW 28 48 15 26 - - 0.0
18/04:30pm 16.3 8.7 0.4 34 7.5 WNW 30 44 16 24 - - 0.0
18/04:00pm 15.1 7.8 0.2 36 6.9 W 28 54 15 29 - - 0.0
18/03:30pm 16.9 9.9 2.1 37 7.2 W 28 48 15 26 - - 0.0
18/03:02pm 15.9 8.8 1.2 37 7.0 WNW 28 56 15 30 - - 0.0
18/03:00pm 15.3 8.7 1.8 40 6.5 WNW 26 39 14 21 - - 0.0
18/02:30pm 16.6 9.6 4.0 43 6.4 W 30 54 16 29 - - 0.0
18/02:26pm 16.0 9.2 3.1 42 6.4 WNW 28 54 15 29 - - 0.0
18/02:00pm 15.5 9.1 3.0 43 6.1 W 26 44 14 24 - - 0.0
18/01:30pm 14.8 7.9 2.4 43 6.0 WNW 28 43 15 23 - - 0.0
18/01:00pm 14.8 9.7 3.9 48 5.4 W 20 33 11 18 - - 0.0
18/12:30pm 14.9 9.9 3.7 47 5.6 WSW 19 32 10 17 - - 0.0
18/12:00pm 13.8 8.4 2.7 47 5.4 W 20 30 11 16 - - 0.0
18/11:30am 13.0 7.4 1.4 45 5.4 WNW 20 30 11 16 - - 0.0
18/11:00am 13.0 7.5 2.0 47 5.2 W 20 35 11 19 - - 0.0
18/10:30am 12.6 8.3 3.0 52 4.6 W 15 28 8 15 - - 0.0
18/10:00am 11.6 5.3 1.5 50 4.7 WNW 24 35 13 19 - - 0.0
18/09:30am 11.0 4.9 0.4 48 4.8 WNW 22 39 12 21 - - 0.0
18/09:00am 10.5 4.4 0.5 50 4.5 WNW 22 33 12 18 - - 0.0
18/08:30am 9.9 4.2 -0.9 47 4.7 WNW 19 24 10 13 - - 0.0
18/08:00am 9.3 3.6 -0.8 49 4.3 NW 19 24 10 13 - - 0.0
18/07:30am 8.6 2.9 -0.4 53 3.9 WNW 19 24 10 13 - - 0.0
18/07:00am 7.7 2.5 0.2 59 3.3 NW 17 20 9 11 - - 0.0
18/06:30am 7.3 2.0 1.8 68 2.5 NW 19 24 10 13 - - 0.0
18/06:00am 7.2 2.3 1.9 69 2.4 NNW 17 22 9 12 - - 0.0
18/05:30am 7.4 2.1 1.7 67 2.6 NW 19 20 10 11 - - 0.0
18/05:00am 7.2 2.3 1.7 68 2.5 NNW 17 24 9 13 - - 0.0
18/04:30am 6.8 2.1 0.9 66 2.6 NNW 15 20 8 11 - - 0.0
18/04:00am 6.9 2.3 1.8 70 2.3 NNW 15 20 8 11 - - 0.0
18/03:30am 6.9 2.6 1.0 66 2.6 N 13 17 7 9 - - 0.0
18/03:00am 7.5 3.1 0.5 61 3.1 N 13 17 7 9 - - 0.0
18/02:30am 8.2 3.8 0.4 58 3.4 N 13 17 7 9 - - 0.0
18/02:00am 8.6 4.0 -0.7 52 4.0 N 13 17 7 9 - - 0.0
18/01:30am 8.5 4.7 -1.0 51 4.0 N 9 13 5 7 - - 0.0
18/01:00am 9.4 5.1 -1.9 45 4.7 N 11 15 6 8 - - 0.0
18/12:30am 10.1 6.5 -2.2 42 5.2 N 7 9 4 5 - - 0.0
18/12:00am 10.3 6.7 -2.4 41 5.3 N 7 11 4 6 - - 0.0
 
Date/Time
EDT
Tmp

°C
App
Tmp
°C
Dew
Point
°C
Rel
Hum
%
Delta-T

°C
Wind Press
QNH
hPa
Press
MSL
hPa
Rain
since
9 am
mm
Dir
 
Spd
km/h
Gust
km/h
Spd
kts
Gust
kts
17/11:30pm 10.7 6.6 -2.7 39 5.6 NW 9 13 5 7 - - 0.0
17/11:00pm 10.5 6.4 -2.8 39 5.5 NW 9 13 5 7 - - 0.0
17/10:30pm 10.3 6.9 -1.7 43 5.1 W 6 11 3 6 - - 0.0
17/10:00pm 10.6 7.1 -1.4 43 5.2 NW 7 13 4 7 - - 0.0
17/09:30pm 11.5 8.1 -0.9 42 5.4 NW 7 11 4 6 - - 0.0
17/09:00pm 11.9 8.9 1.0 47 5.0 NNW 6 11 3 6 - - 0.0
17/08:30pm 12.5 9.8 2.4 50 4.8 NW 6 9 3 5 - - 0.0
17/08:00pm 13.7 10.4 2.3 46 5.5 NW 9 15 5 8 - - 0.0
17/07:30pm 14.5 9.9 1.8 42 6.0 NW 15 22 8 12 - - 0.0
17/07:00pm 15.9 11.5 2.7 41 6.5 WNW 15 20 8 11 - - 0.0
17/06:30pm 15.9 11.4 2.3 40 6.6 WNW 15 24 8 13 - - 0.0
17/06:00pm 16.9 12.0 2.1 37 7.2 WNW 17 24 9 13 - - 0.0
17/05:30pm 16.9 13.0 1.0 34 7.6 W 11 19 6 10 - - 0.0
17/05:00pm 17.6 14.5 5.5 45 6.3 NW 11 20 6 11 - - 0.0
17/04:30pm 16.1 12.0 -0.2 33 7.5 NW 11 15 6 8 - - 0.0
17/04:00pm 16.7 12.7 3.0 40 6.8 W 13 22 7 12 - - 0.0
17/03:30pm 16.4 11.8 1.7 37 7.1 WNW 15 20 8 11 - - 0.0
17/03:00pm 16.2 11.8 2.9 41 6.6 W 15 24 8 13 - - 0.0
17/02:30pm 15.7 11.1 1.8 39 6.7 WNW 15 26 8 14 - - 0.0
17/02:00pm 15.4 10.9 1.9 40 6.5 W 15 24 8 13 - - 0.0
17/01:30pm 15.2 11.3 3.4 45 5.8 W 13 20 7 11 - - 0.0
17/01:00pm 14.9 10.9 3.1 45 5.8 WNW 13 19 7 10 - - 0.0
17/12:30pm 13.9 9.7 1.9 44 5.7 WNW 13 24 7 13 - - 0.0
17/12:00pm 13.4 9.4 2.9 49 5.1 W 13 20 7 11 - - 0.0
17/11:30am 13.0 9.4 2.8 50 4.9 NW 11 19 6 10 - - 0.0
17/11:00am 12.3 8.9 1.6 48 5.0 NNW 9 17 5 9 - - 0.0
17/10:30am 12.1 8.4 2.6 52 4.5 NW 11 17 6 9 - - 0.0
17/10:00am 11.2 7.2 0.6 48 4.8 NNW 11 13 6 7 - - 0.0
17/09:30am 10.1 6.3 -0.4 48 4.6 NW 9 11 5 6 - - 0.0
17/09:00am 10.1 7.6 -0.7 47 4.7 WSW 2 6 1 3 - - 0.0
17/08:30am 9.1 6.6 -3.8 40 5.2 CALM 0 6 0 3 - - 0.0
17/08:00am 9.4 5.9 -2.8 42 5.0 E 6 11 3 6 - - 0.0
17/07:30am 8.2 4.4 -1.1 52 3.9 ESE 9 15 5 8 - - 0.0
17/07:00am 6.9 3.2 0.1 62 2.9 SE 9 13 5 7 - - 0.0
17/06:30am 5.3 1.7 0.7 72 2.0 S 9 13 5 7 - - 0.0
17/06:00am 4.8 2.8 2.5 85 1.0 S 2 7 1 4 - - 0.0
17/05:30am 5.2 1.1 2.2 81 1.3 WSW 13 20 7 11 - - 0.0
17/05:00am 5.7 1.0 3.2 84 1.1 WNW 17 26 9 14 - - 0.0
17/04:30am 6.4 1.1 3.2 80 1.5 WNW 20 33 11 18 - - 0.0
17/04:00am 7.4 1.7 2.9 73 2.1 WNW 22 35 12 19 - - 0.0
17/03:30am 8.3 0.7 3.0 69 2.5 WNW 32 50 17 27 - - 0.0
17/03:21am 8.7 1.4 2.7 66 2.8 WNW 30 50 16 27 - - 0.0
17/03:00am 9.1 3.1 3.5 68 2.7 WNW 24 39 13 21 - - 0.0
17/02:30am 9.7 2.2 3.4 65 3.0 WNW 32 46 17 25 - - 0.0
17/02:00am 10.3 4.7 5.5 72 2.4 WNW 24 33 13 18 - - 0.0
17/01:30am 11.4 5.7 4.8 64 3.3 WNW 24 39 13 21 - - 0.0
17/01:00am 12.7 6.4 3.6 54 4.4 W 26 35 14 19 - - 0.0
17/12:30am 14.4 7.6 1.0 40 6.3 W 26 37 14 20 - - 0.0
17/12:00am 15.6 7.9 -0.2 34 7.3 W 30 44 16 24 - - 0.0
 
Date/Time
EDT
Tmp

°C
App
Tmp
°C
Dew
Point
°C
Rel
Hum
%
Delta-T

°C
Wind Press
QNH
hPa
Press
MSL
hPa
Rain
since
9 am
mm
Dir
 
Spd
km/h
Gust
km/h
Spd
kts
Gust
kts
16/11:30pm 16.2 10.3 -0.5 32 7.7 W 20 39 11 21 - - 0.0
16/11:00pm 16.8 8.4 -0.9 30 8.1 WNW 33 52 18 28 - - 0.0
16/10:32pm 18.0 9.8 -0.8 28 8.7 WNW 32 50 17 27 - - 0.0
16/10:30pm 17.8 9.5 -0.5 29 8.5 WNW 33 50 18 27 - - 0.0
16/10:25pm 18.1 9.9 -0.7 28 8.8 NW 32 50 17 27 - - 0.0
16/10:00pm 18.3 11.3 -0.5 28 8.8 NW 26 39 14 21 - - 0.0

Latest Capital City Observations: Canberra | Sydney | Melbourne | Brisbane | Adelaide | Perth | Hobart | Darwin

Other Formats:

Comma delimited format used in spreadsheet applications
http://www.bom.gov.au/fwo/IDN60903/IDN60903.95916.axf

JavaScript Object Notation format (JSON) in row-major order
http://www.bom.gov.au/fwo/IDN60903/IDN60903.95916.json